createdAt,value
2019-05-20T00:02:23.543Z,86.55
2019-05-20T00:04:45.711Z,86.63
2019-05-20T00:07:14.446Z,86.54
2019-05-20T00:09:43.166Z,86.65
2019-05-20T00:12:11.680Z,86.32
2019-05-20T00:14:40.149Z,86.18
2019-05-20T00:17:08.838Z,86.17
2019-05-20T00:19:37.291Z,86.14
2019-05-20T00:22:05.719Z,86.23
2019-05-20T00:24:34.508Z,86.25
2019-05-20T00:27:06.166Z,86.32
2019-05-20T00:29:34.614Z,86.25
2019-05-20T00:32:03.460Z,86.06
2019-05-20T00:34:35.185Z,86.06
2019-05-20T00:37:02.432Z,86.02
2019-05-20T00:39:30.997Z,85.92
2019-05-20T00:41:59.476Z,85.85
2019-05-20T00:44:27.900Z,85.98
2019-05-20T00:46:56.760Z,86.06
2019-05-20T00:49:25.402Z,86.23
2019-05-20T00:51:53.921Z,86.24
2019-05-20T00:54:22.677Z,86.00
2019-05-20T00:56:52.886Z,85.94
2019-05-20T00:59:21.509Z,86.02
2019-05-20T01:01:53.257Z,86.03
2019-05-20T01:04:21.775Z,85.87
2019-05-20T01:06:50.211Z,85.86
2019-05-20T01:09:18.694Z,85.94
2019-05-20T01:11:48.429Z,85.92
2019-05-20T01:14:16.894Z,85.96
2019-05-20T01:16:45.405Z,86.03
2019-05-20T01:19:13.902Z,86.10
2019-05-20T01:21:42.359Z,86.20
2019-05-20T01:24:10.855Z,86.37
2019-05-20T01:26:39.295Z,86.49
2019-05-20T01:29:07.977Z,86.44
2019-05-20T01:31:36.725Z,86.59
2019-05-20T01:34:07.934Z,86.62
2019-05-20T01:36:36.507Z,86.99
2019-05-20T01:39:06.893Z,87.13
2019-05-20T01:41:35.323Z,87.19
2019-05-20T01:44:04.033Z,87.29
2019-05-20T01:46:32.494Z,87.36
2019-05-20T01:49:01.192Z,87.48
2019-05-20T01:51:29.630Z,87.35
2019-05-20T01:53:58.568Z,87.51
2019-05-20T01:56:27.011Z,87.56
2019-05-20T01:58:55.639Z,87.60
2019-05-20T02:01:24.117Z,87.69
2019-05-20T02:03:52.565Z,87.64
2019-05-20T02:06:21.081Z,87.65
2019-05-20T02:08:49.567Z,87.56
2019-05-20T02:11:18.121Z,87.49
2019-05-20T02:14:00.257Z,87.29
2019-05-20T02:16:29.374Z,87.28
2019-05-20T02:18:58.027Z,87.36
2019-05-20T02:21:28.013Z,87.21
2019-05-20T02:23:56.507Z,87.08
2019-05-20T02:26:25.540Z,87.24
2019-05-20T02:28:54.132Z,87.26
2019-05-20T02:31:22.668Z,87.28
2019-05-20T02:33:52.948Z,87.32
2019-05-20T02:36:21.504Z,87.29
2019-05-20T02:38:51.985Z,87.40
2019-05-20T02:41:20.429Z,87.44
2019-05-20T02:43:49.215Z,87.39
2019-05-20T02:46:19.422Z,87.37
2019-05-20T02:48:50.644Z,87.22
2019-05-20T02:51:23.506Z,87.22
2019-05-20T02:53:51.933Z,87.30
2019-05-20T02:56:20.388Z,87.35
2019-05-20T02:58:49.526Z,87.40
2019-05-20T03:01:26.785Z,87.45
2019-05-20T03:04:10.649Z,87.56
2019-05-20T03:06:25.627Z,87.65
2019-05-20T03:08:54.055Z,87.83
2019-05-20T03:11:22.517Z,87.78
2019-05-20T03:13:50.957Z,88.09
2019-05-20T03:16:19.519Z,88.13
2019-05-20T03:18:48.007Z,88.34
2019-05-20T03:21:16.431Z,88.33
2019-05-20T03:23:45.159Z,88.61
2019-05-20T03:26:13.866Z,88.66
2019-05-20T03:28:42.300Z,88.93
2019-05-20T03:31:10.818Z,88.71
2019-05-20T03:33:39.517Z,88.59
2019-05-20T03:36:08.401Z,88.61
2019-05-20T03:38:36.839Z,88.63
2019-05-20T03:41:05.455Z,88.57
2019-05-20T03:43:33.942Z,88.68
2019-05-20T03:46:02.412Z,88.58
2019-05-20T03:48:31.260Z,88.54
2019-05-20T03:50:59.698Z,88.45
2019-05-20T03:53:28.213Z,88.46
2019-05-20T03:55:57.151Z,88.47
2019-05-20T03:58:27.355Z,88.46
2019-05-20T04:00:56.129Z,88.47
2019-05-20T04:03:26.255Z,88.51
2019-05-20T04:05:54.654Z,88.43
2019-05-20T04:08:23.608Z,88.48
2019-05-20T04:10:52.238Z,88.53
2019-05-20T04:13:21.179Z,88.27
2019-05-20T04:15:49.643Z,88.30
2019-05-20T04:18:18.354Z,88.33
2019-05-20T04:20:49.599Z,88.52
2019-05-20T04:23:18.199Z,88.75
2019-05-20T04:25:47.458Z,88.71
2019-05-20T04:28:15.909Z,88.47
2019-05-20T04:30:44.401Z,88.37
2019-05-20T04:33:12.983Z,88.24
2019-05-20T04:35:43.268Z,88.12
2019-05-20T04:38:11.781Z,88.19
2019-05-20T04:40:40.996Z,88.37
2019-05-20T04:43:12.306Z,88.45
2019-05-20T04:45:41.034Z,88.32
2019-05-20T04:48:13.414Z,88.20
2019-05-20T04:50:39.904Z,88.08
2019-05-20T04:53:08.610Z,87.99
2019-05-20T04:55:37.319Z,87.89
2019-05-20T04:58:05.750Z,87.90
2019-05-20T05:00:52.239Z,87.80
2019-05-20T05:03:21.214Z,87.72
2019-05-20T05:05:50.959Z,87.33
2019-05-20T05:08:21.152Z,87.47
2019-05-20T05:10:50.398Z,87.39
2019-05-20T05:13:19.615Z,87.29
2019-05-20T05:15:48.404Z,86.99
2019-05-20T05:18:17.113Z,86.77
2019-05-20T05:20:45.675Z,86.51
2019-05-20T05:23:14.487Z,86.20
2019-05-20T05:25:42.920Z,85.87
2019-05-20T05:28:11.519Z,85.73
2019-05-20T05:30:40.984Z,85.63
2019-05-20T05:33:09.559Z,85.54
2019-05-20T05:35:52.198Z,85.28
2019-05-20T05:38:08.874Z,85.31
2019-05-20T05:40:37.267Z,85.43
2019-05-20T05:43:05.709Z,85.47
2019-05-20T05:45:34.493Z,85.56
2019-05-20T05:48:03.135Z,85.33
2019-05-20T05:50:31.647Z,85.12
2019-05-20T05:53:00.200Z,84.93
2019-05-20T05:55:28.719Z,84.80
2019-05-20T05:57:57.151Z,84.69
2019-05-20T06:00:26.116Z,84.67
2019-05-20T06:02:54.673Z,84.46
2019-05-20T06:05:23.121Z,84.17
2019-05-20T06:07:51.740Z,84.02
2019-05-20T06:10:20.786Z,84.12
2019-05-20T06:12:49.223Z,84.13
2019-05-20T06:15:18.526Z,84.01
2019-05-20T06:17:47.052Z,83.77
2019-05-20T06:20:16.616Z,83.91
2019-05-20T06:22:48.626Z,84.05
2019-05-20T06:25:19.018Z,83.80
2019-05-20T06:27:47.468Z,83.53
2019-05-20T06:30:16.672Z,83.36
2019-05-20T06:32:45.167Z,83.37
2019-05-20T06:35:15.470Z,83.20
2019-05-20T06:37:51.305Z,82.94
2019-05-20T06:40:20.093Z,82.51
2019-05-20T06:42:48.594Z,82.24
2019-05-20T06:45:17.463Z,81.57
2019-05-20T06:47:45.916Z,81.54
2019-05-20T06:50:14.577Z,81.62
2019-05-20T06:52:43.061Z,81.56
2019-05-20T06:55:12.134Z,81.27
2019-05-20T06:57:40.739Z,81.18
2019-05-20T07:00:10.219Z,81.10
2019-05-20T07:02:38.654Z,81.13
2019-05-20T07:05:08.203Z,81.17
2019-05-20T07:07:36.694Z,81.06
2019-05-20T07:10:07.474Z,81.06
2019-05-20T07:12:41.264Z,80.85
2019-05-20T07:15:07.983Z,80.66
2019-05-20T07:17:36.431Z,80.68
2019-05-20T07:20:06.666Z,80.85
2019-05-20T07:22:53.870Z,80.85
2019-05-20T07:25:06.816Z,80.80
2019-05-20T07:27:35.318Z,80.82
2019-05-20T07:30:08.021Z,80.68
2019-05-20T07:32:50.568Z,80.38
2019-05-20T07:35:29.638Z,80.04
2019-05-20T07:37:49.825Z,79.29
2019-05-20T07:40:30.186Z,79.24
2019-05-20T07:43:09.832Z,78.99
2019-05-20T07:45:39.823Z,78.25
2019-05-20T07:48:21.534Z,77.93
2019-05-20T07:50:58.489Z,77.50
2019-05-20T07:53:35.655Z,77.39
2019-05-20T07:56:12.700Z,77.09
2019-05-20T07:58:47.684Z,76.42
2019-05-20T08:01:19.740Z,76.77
2019-05-20T08:03:51.783Z,76.66
2019-05-20T08:06:23.548Z,76.40
2019-05-20T08:08:55.916Z,75.75
2019-05-20T08:11:26.823Z,75.67
2019-05-20T08:14:03.763Z,75.52
2019-05-20T08:16:38.327Z,75.33
2019-05-20T08:19:11.046Z,74.82
2019-05-20T08:21:45.084Z,74.70
2019-05-20T08:24:16.263Z,74.28
2019-05-20T08:26:56.969Z,74.12
2019-05-20T08:32:18.124Z,73.90
2019-05-20T08:34:48.916Z,73.11
2019-05-20T08:37:21.618Z,73.27
2019-05-20T08:39:51.635Z,73.18
2019-05-20T08:42:22.499Z,72.27
2019-05-20T08:44:54.730Z,71.51
2019-05-20T08:47:28.627Z,71.43
2019-05-20T08:49:59.582Z,71.47
2019-05-20T08:52:29.324Z,71.25
2019-05-20T08:55:08.064Z,70.99
2019-05-20T08:57:41.534Z,71.02
2019-05-20T09:00:22.993Z,71.02
2019-05-20T09:02:48.883Z,70.80
2019-05-20T09:05:20.704Z,70.77
2019-05-20T09:08:02.130Z,70.65
2019-05-20T09:10:23.377Z,70.69
2019-05-20T09:12:53.220Z,70.27
2019-05-20T09:15:22.426Z,69.97
2019-05-20T09:17:58.998Z,69.70
2019-05-20T09:20:28.817Z,69.41
2019-05-20T09:23:02.371Z,69.18
2019-05-20T09:25:31.674Z,68.59
2019-05-20T09:28:04.395Z,68.20
2019-05-20T09:30:39.265Z,67.88
2019-05-20T09:33:08.929Z,67.67
2019-05-20T09:35:46.046Z,67.56
2019-05-20T09:38:21.537Z,68.38
2019-05-20T09:40:51.954Z,67.92
2019-05-20T09:43:21.500Z,67.62
2019-05-20T09:46:06.359Z,67.52
2019-05-20T09:48:31.938Z,67.84
2019-05-20T09:51:04.669Z,67.93
2019-05-20T09:53:34.189Z,67.83
2019-05-20T09:56:03.437Z,67.30
2019-05-20T09:58:33.096Z,66.93
2019-05-20T10:01:02.900Z,66.94
2019-05-20T10:03:32.689Z,66.82
2019-05-20T10:06:01.896Z,66.76
2019-05-20T10:08:38.880Z,66.36
2019-05-20T10:11:01.470Z,66.67
2019-05-20T10:13:35.462Z,66.88
2019-05-20T10:16:06.102Z,66.68
2019-05-20T10:18:38.109Z,66.47
2019-05-20T10:21:06.704Z,66.55
2019-05-20T10:23:38.153Z,66.35
2019-05-20T10:26:09.750Z,65.99
2019-05-20T10:28:42.068Z,65.50
2019-05-20T10:31:09.052Z,64.66
2019-05-20T10:33:37.955Z,63.85
2019-05-20T10:36:06.856Z,64.01
2019-05-20T10:38:35.559Z,64.07
2019-05-20T10:41:04.384Z,64.21
2019-05-20T10:43:33.046Z,64.46
2019-05-20T10:46:02.017Z,64.04
2019-05-20T10:48:31.405Z,64.00
2019-05-20T10:51:00.452Z,65.48
2019-05-20T10:53:29.150Z,65.40
2019-05-20T10:55:59.003Z,65.22
2019-05-20T10:58:28.126Z,65.27
2019-05-20T11:01:03.675Z,64.44
2019-05-20T11:03:29.360Z,64.01
2019-05-20T11:05:57.966Z,63.50
2019-05-20T11:08:29.812Z,63.33
2019-05-20T11:13:52.540Z,63.02
2019-05-20T11:16:22.411Z,62.70
2019-05-20T11:18:50.954Z,62.80
2019-05-20T11:21:20.184Z,62.12
2019-05-20T11:23:49.637Z,62.28
2019-05-20T11:26:19.856Z,62.74
2019-05-20T11:28:49.237Z,63.59
2019-05-20T11:31:18.748Z,63.79
2019-05-20T11:33:48.445Z,63.18
2019-05-20T11:36:20.837Z,62.64
2019-05-20T11:38:50.041Z,62.32
2019-05-20T11:41:19.087Z,61.98
2019-05-20T11:43:48.924Z,61.84
2019-05-20T11:46:19.422Z,61.84
2019-05-20T11:48:48.925Z,61.63
2019-05-20T11:51:19.212Z,61.95
2019-05-20T11:53:48.758Z,61.79
2019-05-20T11:56:19.427Z,61.47
2019-05-20T11:58:49.799Z,60.66
2019-05-20T12:01:21.409Z,60.90
2019-05-20T12:03:51.030Z,61.09
2019-05-20T12:06:20.138Z,61.29
2019-05-20T12:08:49.546Z,61.28
2019-05-20T12:11:18.558Z,61.45
2019-05-20T12:13:47.902Z,61.22
2019-05-20T12:16:18.567Z,61.16
2019-05-20T12:18:47.558Z,61.01
2019-05-20T12:21:22.589Z,60.56
2019-05-20T12:23:53.135Z,60.48
2019-05-20T12:26:22.967Z,60.17
2019-05-20T12:28:54.543Z,60.02
2019-05-20T12:31:25.738Z,60.05
2019-05-20T12:33:56.398Z,60.01
2019-05-20T12:36:26.184Z,59.94
2019-05-20T12:38:57.473Z,59.33
2019-05-20T12:41:26.641Z,59.99
2019-05-20T12:44:10.875Z,60.05
2019-05-20T12:46:28.998Z,59.29
2019-05-20T12:49:02.665Z,60.30
2019-05-20T12:51:33.406Z,59.32
2019-05-20T12:54:05.368Z,58.78
2019-05-20T12:56:35.949Z,58.48
2019-05-20T12:59:06.096Z,58.11
2019-05-20T13:01:36.582Z,58.78
2019-05-20T13:04:05.674Z,57.57
2019-05-20T13:06:34.866Z,57.41
2019-05-20T13:09:05.592Z,57.06
2019-05-20T13:11:34.601Z,56.37
2019-05-20T13:14:03.678Z,56.99
2019-05-20T13:16:32.478Z,56.26
2019-05-20T13:19:01.104Z,55.24
2019-05-20T13:21:31.779Z,54.83
2019-05-20T13:24:00.621Z,54.90
2019-05-20T13:26:29.246Z,54.32
2019-05-20T13:29:00.032Z,54.66
2019-05-20T13:31:28.859Z,54.15
2019-05-20T13:33:57.647Z,53.82
2019-05-20T13:36:26.856Z,53.41
2019-05-20T13:38:55.728Z,52.69
2019-05-20T13:41:24.283Z,52.02
2019-05-20T13:43:53.136Z,51.48
2019-05-20T13:46:21.668Z,50.82
2019-05-20T13:48:50.267Z,50.99
2019-05-20T13:51:21.452Z,50.87
2019-05-20T13:53:50.201Z,50.23
2019-05-20T13:56:18.671Z,50.38
2019-05-20T13:58:47.120Z,49.74
2019-05-20T14:01:15.565Z,50.15
2019-05-20T14:03:44.066Z,50.17
2019-05-20T14:06:12.595Z,50.67
2019-05-20T14:08:42.553Z,50.53
2019-05-20T14:11:10.979Z,50.59
2019-05-20T14:13:39.443Z,50.27
2019-05-20T14:16:07.877Z,50.20
2019-05-20T14:18:40.567Z,50.06
2019-05-20T14:21:09.415Z,49.49
2019-05-20T14:23:43.508Z,49.20
2019-05-20T14:26:12.563Z,49.27
2019-05-20T14:28:42.528Z,49.43
2019-05-20T14:31:15.663Z,49.23
2019-05-20T14:33:50.203Z,48.76
2019-05-20T14:36:38.412Z,49.35
2019-05-20T14:38:52.159Z,49.00
2019-05-20T14:41:27.421Z,48.58
2019-05-20T14:43:56.346Z,48.31
2019-05-20T14:46:25.332Z,48.32
2019-05-20T14:48:56.254Z,48.16
2019-05-20T14:51:25.268Z,47.74
2019-05-20T14:53:55.859Z,47.84
2019-05-20T14:56:27.798Z,47.64
2019-05-20T14:58:56.969Z,48.26
2019-05-20T15:01:26.547Z,49.05
2019-05-20T15:03:55.235Z,49.62
2019-05-20T15:06:26.632Z,50.05
2019-05-20T15:08:55.206Z,50.04
2019-05-20T15:11:37.666Z,50.54
2019-05-20T15:14:00.332Z,51.04
2019-05-20T15:16:29.138Z,51.68
2019-05-20T15:18:57.801Z,52.10
2019-05-20T15:21:29.479Z,52.35
2019-05-20T15:23:57.132Z,52.55
2019-05-20T15:26:25.668Z,52.49
2019-05-20T15:28:54.166Z,52.85
2019-05-20T15:31:22.886Z,52.95
2019-05-20T15:33:51.330Z,53.14
2019-05-20T15:36:19.806Z,53.49
2019-05-20T15:38:48.266Z,53.95
2019-05-20T15:41:16.681Z,54.57
2019-05-20T15:43:48.640Z,54.97
2019-05-20T15:46:17.153Z,55.45
2019-05-20T15:48:45.606Z,55.50
2019-05-20T15:51:14.190Z,55.27
2019-05-20T15:53:42.940Z,54.32
2019-05-20T15:56:11.361Z,53.66
2019-05-20T15:58:39.847Z,53.02
2019-05-20T16:01:08.311Z,52.70
2019-05-20T16:03:37.029Z,52.18
2019-05-20T16:06:08.596Z,51.60
2019-05-20T16:08:37.178Z,51.34
2019-05-20T16:11:07.069Z,50.89
2019-05-20T16:13:35.775Z,50.64
2019-05-20T16:16:06.511Z,50.07
2019-05-20T16:18:36.802Z,50.21
2019-05-20T16:21:05.322Z,50.47
2019-05-20T16:23:33.819Z,51.14
2019-05-20T16:26:02.469Z,51.66
2019-05-20T16:28:31.000Z,52.59
2019-05-20T16:31:02.813Z,53.44
2019-05-20T16:33:31.804Z,53.87
2019-05-20T16:36:01.019Z,54.35
2019-05-20T16:38:30.222Z,54.78
2019-05-20T16:41:00.409Z,55.07
2019-05-20T16:43:30.055Z,55.45
2019-05-20T16:45:59.522Z,55.93
2019-05-20T16:48:28.617Z,56.23
2019-05-20T16:50:59.722Z,56.65
2019-05-20T16:53:30.992Z,56.87
2019-05-20T16:56:06.416Z,57.12
2019-05-20T16:58:44.698Z,57.30
2019-05-20T17:01:16.454Z,57.44
2019-05-20T17:03:48.500Z,57.47
2019-05-20T17:06:19.679Z,57.43
2019-05-20T17:08:51.381Z,57.62
2019-05-20T17:11:19.863Z,57.41
2019-05-20T17:13:48.936Z,57.27
2019-05-20T17:16:20.675Z,57.24
2019-05-20T17:18:49.612Z,57.13
2019-05-20T17:21:18.792Z,57.09
2019-05-20T17:23:49.078Z,57.18
2019-05-20T17:26:18.258Z,57.02
2019-05-20T17:28:47.309Z,56.99
2019-05-20T17:31:18.782Z,56.89
2019-05-20T17:33:51.155Z,56.94
2019-05-20T17:36:21.475Z,57.10
2019-05-20T17:38:50.408Z,57.57
2019-05-20T17:41:19.377Z,58.02
2019-05-20T17:43:48.535Z,58.53
2019-05-20T17:46:17.606Z,58.94
2019-05-20T17:48:49.682Z,59.24
2019-05-20T17:51:18.882Z,59.90
2019-05-20T17:53:52.618Z,60.43
2019-05-20T17:56:24.642Z,60.96
2019-05-20T17:58:57.161Z,61.27
2019-05-20T18:01:31.551Z,62.04
2019-05-20T18:04:10.287Z,62.06
2019-05-20T18:06:39.443Z,62.31
2019-05-20T18:09:12.884Z,62.49
2019-05-20T18:11:46.147Z,62.19
2019-05-20T18:14:15.300Z,62.20
2019-05-20T18:16:44.818Z,62.09
2019-05-20T18:19:15.515Z,62.22
2019-05-20T18:21:44.890Z,62.50
2019-05-20T18:24:14.231Z,62.66
2019-05-20T18:26:42.926Z,62.86
2019-05-20T18:29:11.958Z,63.11
2019-05-20T18:31:41.051Z,63.15
2019-05-20T18:34:10.172Z,63.35
2019-05-20T18:36:39.227Z,63.53
2019-05-20T18:39:08.535Z,64.02
2019-05-20T18:41:38.984Z,64.70
2019-05-20T18:44:07.968Z,64.56
2019-05-20T18:46:37.212Z,64.84
2019-05-20T18:49:05.848Z,65.08
2019-05-20T18:51:34.873Z,65.21
2019-05-20T18:54:04.746Z,65.32
2019-05-20T18:56:34.076Z,65.48
2019-05-20T18:59:05.137Z,65.56
2019-05-20T19:01:50.567Z,65.54
2019-05-20T19:04:07.535Z,65.65
2019-05-20T19:06:37.012Z,65.77
2019-05-20T19:09:08.758Z,65.86
2019-05-20T19:11:36.655Z,65.95
2019-05-20T19:14:08.317Z,66.30
2019-05-20T19:16:38.036Z,66.32
2019-05-20T19:19:09.804Z,66.62
2019-05-20T19:21:41.422Z,66.83
2019-05-20T19:24:12.250Z,67.11
2019-05-20T19:26:44.270Z,67.36
2019-05-20T19:29:13.411Z,67.55
2019-05-20T19:31:42.848Z,67.80
2019-05-20T19:34:19.249Z,68.07
2019-05-20T19:36:48.327Z,68.28
2019-05-20T19:39:17.133Z,68.36
2019-05-20T19:41:46.749Z,68.47
2019-05-20T19:44:15.384Z,68.53
2019-05-20T19:46:45.388Z,68.61
2019-05-20T19:49:13.854Z,68.75
2019-05-20T19:51:42.456Z,68.95
2019-05-20T19:54:10.988Z,69.02
2019-05-20T19:56:39.615Z,69.08
2019-05-20T19:59:08.485Z,69.16
2019-05-20T20:01:37.257Z,69.57
2019-05-20T20:04:06.116Z,69.39
2019-05-20T20:06:36.330Z,69.35
2019-05-20T20:09:09.217Z,69.14
2019-05-20T20:11:38.019Z,68.94
2019-05-20T20:14:06.794Z,68.76
2019-05-20T20:16:38.272Z,68.63
2019-05-20T20:19:06.808Z,68.57
2019-05-20T20:21:35.255Z,68.49
2019-05-20T20:24:03.668Z,68.45
2019-05-20T20:26:32.462Z,68.34
2019-05-20T20:29:01.051Z,68.30
2019-05-20T20:31:29.780Z,68.32
2019-05-20T20:33:58.474Z,68.28
2019-05-20T20:36:26.904Z,68.34
2019-05-20T20:38:56.115Z,68.45
2019-05-20T20:41:24.561Z,68.48
2019-05-20T20:43:53.026Z,68.54
2019-05-20T20:46:21.462Z,68.58
2019-05-20T20:48:49.937Z,68.62
2019-05-20T20:51:18.895Z,68.71
2019-05-20T20:53:49.726Z,68.80
2019-05-20T20:56:25.316Z,68.93
2019-05-20T20:58:48.354Z,69.02
2019-05-20T21:01:16.821Z,69.15
2019-05-20T21:03:45.496Z,69.21
2019-05-20T21:06:13.903Z,69.38
2019-05-20T21:08:42.645Z,69.55
2019-05-20T21:11:11.188Z,69.61
2019-05-20T21:13:39.609Z,69.63
2019-05-20T21:16:08.019Z,69.66
2019-05-20T21:18:36.607Z,69.67
2019-05-20T21:21:05.038Z,69.75
2019-05-20T21:23:33.459Z,69.79
2019-05-20T21:26:04.960Z,69.79
2019-05-20T21:28:33.758Z,69.79
2019-05-20T21:31:02.236Z,69.90
2019-05-20T21:33:30.772Z,69.86
2019-05-20T21:35:59.212Z,69.89
2019-05-20T21:38:27.688Z,69.88
2019-05-20T21:40:56.125Z,69.94
2019-05-20T21:43:24.585Z,69.92
2019-05-20T21:45:53.061Z,69.90
2019-05-20T21:48:21.831Z,69.98
2019-05-20T21:50:50.888Z,70.01
2019-05-20T21:53:19.361Z,70.08
2019-05-20T21:55:47.909Z,70.14
2019-05-20T21:58:16.337Z,70.20
2019-05-20T22:00:49.832Z,70.26
2019-05-20T22:03:24.443Z,70.34
2019-05-20T22:05:48.806Z,70.39
2019-05-20T22:08:17.301Z,70.44
2019-05-20T22:10:45.762Z,70.56
2019-05-20T22:13:14.705Z,70.77
2019-05-20T22:15:43.138Z,71.25
2019-05-20T22:18:11.708Z,70.90
2019-05-20T22:20:40.151Z,71.04
2019-05-20T22:23:16.121Z,71.25
2019-05-20T22:25:46.454Z,71.38
2019-05-20T22:28:14.935Z,71.58
2019-05-20T22:30:43.396Z,71.63
2019-05-20T22:33:12.088Z,71.71
2019-05-20T22:35:40.547Z,71.76
2019-05-20T22:38:09.157Z,71.86
2019-05-20T22:40:37.812Z,71.95
2019-05-20T22:43:06.236Z,71.99
2019-05-20T22:45:34.864Z,72.02
2019-05-20T22:48:03.303Z,72.09
2019-05-20T22:50:33.306Z,72.06
2019-05-20T22:53:03.999Z,72.06
2019-05-20T22:55:32.888Z,72.02
2019-05-20T22:58:01.409Z,71.99
2019-05-20T23:00:29.941Z,71.95
2019-05-20T23:02:58.369Z,71.93
2019-05-20T23:05:27.020Z,71.89
2019-05-20T23:07:55.721Z,71.88
2019-05-20T23:10:35.861Z,71.82
2019-05-20T23:13:04.349Z,71.73
2019-05-20T23:15:35.634Z,71.72
2019-05-20T23:18:04.907Z,72.09
2019-05-20T23:20:33.372Z,72.31
2019-05-20T23:23:07.745Z,72.56
2019-05-20T23:25:36.238Z,72.80
2019-05-20T23:28:07.589Z,72.79
2019-05-20T23:30:37.183Z,72.74
2019-05-20T23:33:07.285Z,72.80
2019-05-20T23:35:35.998Z,72.98
2019-05-20T23:38:05.010Z,73.16
2019-05-20T23:40:33.728Z,73.37
2019-05-20T23:43:02.230Z,73.50
2019-05-20T23:45:36.535Z,73.61
2019-05-20T23:48:05.724Z,73.70
2019-05-20T23:50:34.444Z,73.79
2019-05-20T23:53:03.013Z,74.05
2019-05-20T23:55:31.556Z,74.05
2019-05-20T23:58:00.171Z,73.92
